createdAt,value
2018-06-24T00:01:13.511Z,14.50
2018-06-24T00:03:43.012Z,14.50
2018-06-24T00:06:12.291Z,14.50
2018-06-24T00:08:41.749Z,14.40
2018-06-24T00:11:11.543Z,14.40
2018-06-24T00:13:40.867Z,14.40
2018-06-24T00:16:10.114Z,14.30
2018-06-24T00:18:39.401Z,14.30
2018-06-24T00:21:08.719Z,14.30
2018-06-24T00:26:06.769Z,14.40
2018-06-24T00:28:36.094Z,14.40
2018-06-24T00:31:05.339Z,14.40
2018-06-24T00:33:34.621Z,14.40
2018-06-24T00:36:03.903Z,14.40
2018-06-24T00:38:33.964Z,14.40
2018-06-24T00:41:03.216Z,14.60
2018-06-24T00:43:32.490Z,15.00
2018-06-24T00:46:02.325Z,14.90
2018-06-24T00:48:31.631Z,14.80
2018-06-24T00:51:00.887Z,14.70
2018-06-24T00:53:30.188Z,15.20
2018-06-24T00:55:59.501Z,15.10
2018-06-24T00:58:28.779Z,15.00
2018-06-24T01:00:58.615Z,14.90
2018-06-24T01:03:27.976Z,15.00
2018-06-24T01:05:57.232Z,15.00
2018-06-24T01:08:26.660Z,15.00
2018-06-24T01:10:55.955Z,15.30
2018-06-24T01:13:25.320Z,15.40
2018-06-24T01:15:54.949Z,15.10
2018-06-24T01:18:24.219Z,15.00
2018-06-24T01:20:54.283Z,14.90
2018-06-24T01:23:23.563Z,14.80
2018-06-24T01:25:52.868Z,14.70
2018-06-24T01:28:22.129Z,14.60
2018-06-24T01:30:51.480Z,14.50
2018-06-24T01:33:20.783Z,14.30
2018-06-24T01:35:50.022Z,14.30
2018-06-24T01:38:19.989Z,14.40
2018-06-24T01:40:49.315Z,14.30
2018-06-24T01:43:18.670Z,14.20
2018-06-24T01:45:48.028Z,14.10
2018-06-24T01:48:17.288Z,14.00
2018-06-24T01:50:46.522Z,14.00
2018-06-24T01:53:15.803Z,14.30
2018-06-24T01:58:14.409Z,14.10
2018-06-24T02:00:43.760Z,14.00
2018-06-24T02:03:12.987Z,14.00
2018-06-24T02:05:42.593Z,14.00
2018-06-24T02:08:12.539Z,13.90
2018-06-24T02:10:41.820Z,14.00
2018-06-24T02:13:11.094Z,14.10
2018-06-24T02:15:40.332Z,14.10
2018-06-24T02:18:09.581Z,14.10
2018-06-24T02:20:38.854Z,14.10
2018-06-24T02:23:08.140Z,14.20
2018-06-24T02:25:37.968Z,14.20
2018-06-24T02:28:07.301Z,14.20
2018-06-24T02:30:36.649Z,14.30
2018-06-24T02:33:05.929Z,14.50
2018-06-24T02:35:35.350Z,14.50
2018-06-24T02:38:04.652Z,14.40
2018-06-24T02:40:33.951Z,14.80
2018-06-24T02:43:03.217Z,14.80
2018-06-24T02:45:32.503Z,14.60
2018-06-24T02:48:01.753Z,14.60
2018-06-24T02:50:31.060Z,14.60
2018-06-24T02:53:00.358Z,14.80
2018-06-24T02:55:29.570Z,14.70
2018-06-24T02:57:58.800Z,14.70
2018-06-24T03:00:28.077Z,14.70
2018-06-24T03:02:58.461Z,14.60
2018-06-24T03:05:27.706Z,14.70
2018-06-24T03:07:56.955Z,14.80
2018-06-24T03:10:26.261Z,14.70
2018-06-24T03:12:55.516Z,14.60
2018-06-24T03:15:25.491Z,14.70
2018-06-24T03:17:54.825Z,15.00
2018-06-24T03:20:26.565Z,15.30
2018-06-24T03:22:55.811Z,15.10
2018-06-24T03:25:25.075Z,15.00
2018-06-24T03:27:54.357Z,14.90
2018-06-24T03:30:23.687Z,14.80
2018-06-24T03:35:21.791Z,14.70
2018-06-24T03:37:51.120Z,15.20
2018-06-24T03:40:20.377Z,15.20
2018-06-24T03:42:49.699Z,15.00
2018-06-24T03:45:18.977Z,14.90
2018-06-24T03:47:48.260Z,15.20
2018-06-24T03:50:17.525Z,15.10
2018-06-24T03:52:46.800Z,15.20
2018-06-24T03:55:16.062Z,15.50
2018-06-24T03:57:45.415Z,15.20
2018-06-24T04:00:14.690Z,15.10
2018-06-24T04:02:43.976Z,15.20
2018-06-24T04:05:13.219Z,15.20
2018-06-24T04:07:42.455Z,15.10
2018-06-24T04:10:11.674Z,15.20
2018-06-24T04:12:41.259Z,15.40
2018-06-24T04:15:11.429Z,15.30
2018-06-24T04:17:40.701Z,15.40
2018-06-24T04:20:10.792Z,15.40
2018-06-24T04:22:40.056Z,15.40
2018-06-24T04:25:09.399Z,15.50
2018-06-24T04:27:39.162Z,15.50
2018-06-24T04:30:09.820Z,15.50
2018-06-24T04:32:39.564Z,15.60
2018-06-24T04:35:08.816Z,15.70
2018-06-24T04:40:07.577Z,15.90
2018-06-24T04:42:36.980Z,16.00
2018-06-24T04:45:06.269Z,16.10
2018-06-24T04:47:35.539Z,16.10
2018-06-24T04:50:04.996Z,16.30
2018-06-24T04:52:34.264Z,16.50
2018-06-24T04:55:03.533Z,16.60
2018-06-24T04:57:32.760Z,16.60
2018-06-24T05:00:02.028Z,16.50
2018-06-24T05:02:31.323Z,16.70
2018-06-24T05:05:00.646Z,16.60
2018-06-24T05:07:29.955Z,16.70
2018-06-24T05:09:59.321Z,16.70
2018-06-24T05:12:28.638Z,16.70
2018-06-24T05:14:57.858Z,16.90
2018-06-24T05:17:27.180Z,16.90
2018-06-24T05:19:56.471Z,16.90
2018-06-24T05:22:25.761Z,16.90
2018-06-24T05:24:54.979Z,17.00
2018-06-24T05:27:24.967Z,17.00
2018-06-24T05:29:54.252Z,17.20
2018-06-24T05:32:23.499Z,17.30
2018-06-24T05:34:52.764Z,17.30
2018-06-24T05:37:22.032Z,17.30
2018-06-24T05:39:51.381Z,17.30
2018-06-24T05:42:20.692Z,17.30
2018-06-24T05:44:50.715Z,17.30
2018-06-24T05:47:19.931Z,17.30
2018-06-24T05:49:49.223Z,17.40
2018-06-24T05:52:18.508Z,17.50
2018-06-24T05:54:48.395Z,17.60
2018-06-24T05:57:17.755Z,17.70
2018-06-24T05:59:47.026Z,17.70
2018-06-24T06:02:16.283Z,17.80
2018-06-24T06:04:45.640Z,17.90
2018-06-24T06:07:14.944Z,17.90
2018-06-24T06:12:13.676Z,18.00
2018-06-24T06:14:42.998Z,18.00
2018-06-24T06:17:12.316Z,18.20
2018-06-24T06:19:41.927Z,18.30
2018-06-24T06:22:11.240Z,18.30
2018-06-24T06:24:40.524Z,18.40
2018-06-24T06:27:09.834Z,18.40
2018-06-24T06:29:39.115Z,18.40
2018-06-24T06:32:08.441Z,18.50
2018-06-24T06:34:38.590Z,18.60
2018-06-24T06:37:08.036Z,18.50
2018-06-24T06:39:37.358Z,18.60
2018-06-24T06:42:07.773Z,18.60
2018-06-24T06:44:37.199Z,18.20
2018-06-24T06:47:06.679Z,18.40
2018-06-24T06:49:36.003Z,18.60
2018-06-24T06:52:05.301Z,18.70
2018-06-24T06:54:35.443Z,18.70
2018-06-24T06:57:04.966Z,18.80
2018-06-24T06:59:34.313Z,18.90
2018-06-24T07:02:04.788Z,19.00
2018-06-24T07:04:34.018Z,19.10
2018-06-24T07:07:03.542Z,19.10
2018-06-24T07:09:32.819Z,18.70
2018-06-24T07:12:02.689Z,18.30
2018-06-24T07:14:32.163Z,18.20
2018-06-24T07:17:01.510Z,18.30
2018-06-24T07:19:30.863Z,18.30
2018-06-24T07:22:00.193Z,18.20
2018-06-24T07:24:29.451Z,18.40
2018-06-24T07:26:58.764Z,18.50
2018-06-24T07:29:33.251Z,18.60
2018-06-24T07:32:02.509Z,18.70
2018-06-24T07:34:31.766Z,18.90
2018-06-24T07:37:01.036Z,19.00
2018-06-24T07:39:31.251Z,19.00
2018-06-24T07:42:00.581Z,18.90
2018-06-24T07:44:29.823Z,19.20
2018-06-24T07:46:59.036Z,19.30
2018-06-24T07:49:28.298Z,19.30
2018-06-24T07:51:58.248Z,19.30
2018-06-24T07:54:27.588Z,19.50
2018-06-24T07:56:56.807Z,19.60
2018-06-24T07:59:26.118Z,19.70
2018-06-24T08:01:55.384Z,19.80
2018-06-24T08:04:24.677Z,19.90
2018-06-24T08:06:53.929Z,19.70
2018-06-24T08:09:23.268Z,19.80
2018-06-24T08:11:53.208Z,19.80
2018-06-24T08:14:22.585Z,20.00
2018-06-24T08:16:52.583Z,20.30
2018-06-24T08:19:21.920Z,20.40
2018-06-24T08:21:51.206Z,20.90
2018-06-24T08:24:20.506Z,21.20
2018-06-24T08:26:49.825Z,21.30
2018-06-24T08:29:19.259Z,21.20
2018-06-24T08:31:48.605Z,21.40
2018-06-24T08:34:17.864Z,21.50
2018-06-24T08:36:47.143Z,21.70
2018-06-24T08:39:16.464Z,22.00
2018-06-24T08:41:45.719Z,21.80
2018-06-24T08:44:15.307Z,21.60
2018-06-24T08:46:44.560Z,21.60
2018-06-24T08:49:13.875Z,21.20
2018-06-24T08:51:43.170Z,21.00
2018-06-24T08:54:12.393Z,21.00
2018-06-24T08:56:41.706Z,21.20
2018-06-24T08:59:10.963Z,21.40
2018-06-24T09:01:40.327Z,21.40
2018-06-24T09:04:09.605Z,21.50
2018-06-24T09:06:38.912Z,21.40
2018-06-24T09:09:09.979Z,21.40
2018-06-24T09:11:39.275Z,21.70
2018-06-24T09:14:08.573Z,21.70
2018-06-24T09:16:37.904Z,21.30
2018-06-24T09:19:07.231Z,21.20
2018-06-24T09:21:36.507Z,21.30
2018-06-24T09:24:06.529Z,21.50
2018-06-24T09:26:35.799Z,22.00
2018-06-24T09:29:05.140Z,22.10
2018-06-24T09:31:34.560Z,22.40
2018-06-24T09:34:05.280Z,22.90
2018-06-24T09:36:34.572Z,22.90
2018-06-24T09:39:06.410Z,23.20
2018-06-24T09:41:35.733Z,23.20
2018-06-24T09:46:33.894Z,23.50
2018-06-24T09:49:03.133Z,23.90
2018-06-24T09:51:32.647Z,24.50
2018-06-24T09:56:30.732Z,25.20
2018-06-24T09:58:59.976Z,25.30
2018-06-24T10:01:29.343Z,25.10
2018-06-24T10:03:58.681Z,25.00
2018-06-24T10:06:28.437Z,25.20
2018-06-24T10:08:57.688Z,25.30
2018-06-24T10:11:27.029Z,25.30
2018-06-24T10:13:56.289Z,25.00
2018-06-24T10:16:25.627Z,24.80
2018-06-24T10:18:55.462Z,25.30
2018-06-24T10:21:25.391Z,25.50
2018-06-24T10:23:54.647Z,25.80
2018-06-24T10:26:23.978Z,25.90
2018-06-24T10:28:53.347Z,25.70
2018-06-24T10:33:51.525Z,25.50
2018-06-24T10:36:23.255Z,25.10
2018-06-24T10:38:52.648Z,24.50
2018-06-24T10:41:22.080Z,24.50
2018-06-24T10:43:51.345Z,24.50
2018-06-24T10:46:20.626Z,24.50
2018-06-24T10:48:49.883Z,24.30
2018-06-24T10:51:19.194Z,23.80
2018-06-24T10:53:49.019Z,23.60
2018-06-24T10:56:18.363Z,23.60
2018-06-24T11:01:17.759Z,23.40
2018-06-24T11:03:47.135Z,23.50
2018-06-24T11:06:16.388Z,23.80
2018-06-24T11:08:46.363Z,23.50
2018-06-24T11:11:15.759Z,23.10
2018-06-24T11:13:45.108Z,23.20
2018-06-24T11:16:14.501Z,23.30
2018-06-24T11:18:43.769Z,23.40
2018-06-24T11:21:14.343Z,23.40
2018-06-24T11:23:42.323Z,22.60
2018-06-24T11:26:11.591Z,22.70
2018-06-24T11:28:40.855Z,22.80
2018-06-24T11:31:10.149Z,22.80
2018-06-24T11:33:39.460Z,23.00
2018-06-24T11:38:37.912Z,22.90
2018-06-24T11:41:07.331Z,22.70
2018-06-24T11:43:36.927Z,22.60
2018-06-24T11:46:06.444Z,22.40
2018-06-24T11:48:35.728Z,22.30
2018-06-24T11:51:05.048Z,21.90
2018-06-24T11:53:34.343Z,21.60
2018-06-24T11:56:03.679Z,21.60
2018-06-24T11:58:33.045Z,21.50
2018-06-24T12:01:02.752Z,21.50
2018-06-24T12:03:32.068Z,21.60
2018-06-24T12:06:01.377Z,21.70
2018-06-24T12:08:30.623Z,21.80
2018-06-24T12:10:59.864Z,21.90
2018-06-24T12:13:29.159Z,21.90
2018-06-24T12:15:58.444Z,21.90
2018-06-24T12:18:27.719Z,21.50
2018-06-24T12:20:57.039Z,21.60
2018-06-24T12:23:26.327Z,21.40
2018-06-24T12:25:55.740Z,21.50
2018-06-24T12:28:25.079Z,21.40
2018-06-24T12:30:54.381Z,21.40
2018-06-24T12:33:23.797Z,21.60
2018-06-24T12:35:53.027Z,21.60
2018-06-24T12:38:22.312Z,21.60
2018-06-24T12:40:51.555Z,21.50
2018-06-24T12:43:21.925Z,21.50
2018-06-24T12:45:51.161Z,21.40
2018-06-24T12:48:20.466Z,21.40
2018-06-24T12:50:49.720Z,21.20
2018-06-24T12:53:18.959Z,21.20
2018-06-24T12:55:48.225Z,21.00
2018-06-24T12:58:17.551Z,20.90
2018-06-24T13:00:47.421Z,20.60
2018-06-24T13:03:16.520Z,20.20
2018-06-24T13:05:47.024Z,20.40
2018-06-24T13:08:16.412Z,20.30
2018-06-24T13:10:45.672Z,20.20
2018-06-24T13:13:14.997Z,20.10
2018-06-24T13:15:44.227Z,20.30
2018-06-24T13:18:13.487Z,20.40
2018-06-24T13:20:43.447Z,20.40
2018-06-24T13:23:12.824Z,20.40
2018-06-24T13:25:42.088Z,20.40
2018-06-24T13:28:11.354Z,20.40
2018-06-24T13:30:40.636Z,20.20
2018-06-24T13:33:11.020Z,20.00
2018-06-24T13:35:40.299Z,20.10
2018-06-24T13:38:09.609Z,20.20
2018-06-24T13:40:38.973Z,20.30
2018-06-24T13:43:08.266Z,20.50
2018-06-24T13:45:37.903Z,20.60
2018-06-24T13:48:07.603Z,20.50
2018-06-24T13:50:36.933Z,20.20
2018-06-24T13:53:06.252Z,20.40
2018-06-24T13:55:36.255Z,20.40
2018-06-24T13:58:06.077Z,20.60
2018-06-24T14:00:35.274Z,20.60
2018-06-24T14:03:04.557Z,20.50
2018-06-24T14:05:33.843Z,20.40
2018-06-24T14:08:03.132Z,20.40
2018-06-24T14:10:32.370Z,20.40
2018-06-24T14:13:01.686Z,20.10
2018-06-24T14:15:30.903Z,20.00
2018-06-24T14:18:00.240Z,19.80
2018-06-24T14:20:29.527Z,19.80
2018-06-24T14:22:58.892Z,19.80
2018-06-24T14:25:28.133Z,19.70
2018-06-24T14:27:57.457Z,19.30
2018-06-24T14:30:26.732Z,19.30
2018-06-24T14:32:56.212Z,19.20
2018-06-24T14:35:25.511Z,19.00
2018-06-24T14:37:54.787Z,19.00
2018-06-24T14:40:24.831Z,19.20
2018-06-24T14:42:54.262Z,19.20
2018-06-24T14:45:23.549Z,19.10
2018-06-24T14:47:52.893Z,19.20
2018-06-24T14:50:22.208Z,19.10
2018-06-24T14:52:51.539Z,19.10
2018-06-24T14:55:20.801Z,19.10
2018-06-24T14:57:50.240Z,19.20
2018-06-24T15:00:19.525Z,19.20
2018-06-24T15:02:48.839Z,19.10
2018-06-24T15:05:19.846Z,19.20
2018-06-24T15:07:49.116Z,19.30
2018-06-24T15:10:18.458Z,19.20
2018-06-24T15:12:47.798Z,19.20
2018-06-24T15:15:17.106Z,19.10
2018-06-24T15:17:46.446Z,18.90
2018-06-24T15:20:15.725Z,19.10
2018-06-24T15:22:44.996Z,19.00
2018-06-24T15:25:14.358Z,19.10
2018-06-24T15:27:43.681Z,18.90
2018-06-24T15:30:13.751Z,18.80
2018-06-24T15:32:43.263Z,18.80
2018-06-24T15:35:12.771Z,18.90
2018-06-24T15:37:42.279Z,18.80
2018-06-24T15:40:11.611Z,18.90
2018-06-24T15:42:40.913Z,18.70
2018-06-24T15:45:10.210Z,18.70
2018-06-24T15:47:39.667Z,18.70
2018-06-24T15:50:09.025Z,18.80
2018-06-24T15:52:38.433Z,18.70
2018-06-24T15:55:08.012Z,18.60
2018-06-24T15:57:37.340Z,18.40
2018-06-24T16:00:06.699Z,18.30
2018-06-24T16:02:36.088Z,18.30
2018-06-24T16:05:05.757Z,18.40
2018-06-24T16:07:35.048Z,18.40
2018-06-24T16:10:04.503Z,18.30
2018-06-24T16:12:33.819Z,18.40
2018-06-24T16:15:03.170Z,18.50
2018-06-24T16:17:32.555Z,18.30
2018-06-24T16:20:02.107Z,18.40
2018-06-24T16:22:31.770Z,18.50
2018-06-24T16:25:01.171Z,18.50
2018-06-24T16:29:59.468Z,18.50
2018-06-24T16:32:28.968Z,18.40
2018-06-24T16:34:58.307Z,18.30
2018-06-24T16:37:27.681Z,18.40
2018-06-24T16:39:56.957Z,18.40
2018-06-24T16:42:26.523Z,18.20
2018-06-24T16:44:56.016Z,18.20
2018-06-24T16:47:25.342Z,18.10
2018-06-24T16:49:59.510Z,18.00
2018-06-24T16:52:28.894Z,17.80
2018-06-24T16:54:58.260Z,17.90
2018-06-24T16:57:27.717Z,17.80
2018-06-24T16:59:57.097Z,18.00
2018-06-24T17:02:26.364Z,18.00
2018-06-24T17:04:56.491Z,18.10
2018-06-24T17:07:25.787Z,18.00
2018-06-24T17:09:55.257Z,18.00
2018-06-24T17:12:24.558Z,18.00
2018-06-24T17:14:53.824Z,18.00
2018-06-24T17:17:23.160Z,18.00
2018-06-24T17:19:52.513Z,18.00
2018-06-24T17:22:22.001Z,18.00
2018-06-24T17:24:51.670Z,17.90
2018-06-24T17:27:21.105Z,17.90
2018-06-24T17:29:50.403Z,17.90
2018-06-24T17:32:19.838Z,17.60
2018-06-24T17:34:49.132Z,17.70
2018-06-24T17:37:18.447Z,17.70
2018-06-24T17:39:47.763Z,17.90
2018-06-24T17:42:17.024Z,17.70
2018-06-24T17:44:46.409Z,17.90
2018-06-24T17:47:15.751Z,17.90
2018-06-24T17:49:45.092Z,17.80
2018-06-24T17:52:15.965Z,17.90
2018-06-24T17:54:45.664Z,18.00
2018-06-24T17:57:15.107Z,17.90
2018-06-24T17:59:44.454Z,17.80
2018-06-24T18:02:13.796Z,17.90
2018-06-24T18:04:43.142Z,17.90
2018-06-24T18:07:12.770Z,17.70
2018-06-24T18:09:42.093Z,17.80
2018-06-24T18:12:11.560Z,17.80
2018-06-24T18:14:40.960Z,17.90
2018-06-24T18:17:11.080Z,17.60
2018-06-24T18:19:40.445Z,17.70
2018-06-24T18:22:09.839Z,17.80
2018-06-24T18:24:39.216Z,17.70
2018-06-24T18:27:08.627Z,17.60
2018-06-24T18:29:38.317Z,17.60
2018-06-24T18:32:07.666Z,17.80
2018-06-24T18:34:37.019Z,17.90
2018-06-24T18:37:06.373Z,17.60
2018-06-24T18:39:36.546Z,17.70
2018-06-24T18:42:05.998Z,17.70
2018-06-24T18:44:35.274Z,17.90
2018-06-24T18:47:04.641Z,17.70
2018-06-24T18:49:34.031Z,17.90
2018-06-24T18:52:03.436Z,18.00
2018-06-24T18:54:32.903Z,17.90
2018-06-24T18:57:03.254Z,17.80
2018-06-24T18:59:32.598Z,17.80
2018-06-24T19:02:03.059Z,17.80
2018-06-24T19:04:32.506Z,17.80
2018-06-24T19:07:01.982Z,17.90
2018-06-24T19:09:31.312Z,17.70
2018-06-24T19:12:00.656Z,17.80
2018-06-24T19:14:30.673Z,17.70
2018-06-24T19:17:00.122Z,17.70
2018-06-24T19:19:30.141Z,17.60
2018-06-24T19:21:59.493Z,17.50
2018-06-24T19:24:28.837Z,17.40
2018-06-24T19:26:58.395Z,17.40
2018-06-24T19:29:27.908Z,17.50
2018-06-24T19:31:57.501Z,17.40
2018-06-24T19:34:26.792Z,17.30
2018-06-24T19:36:57.079Z,17.30
2018-06-24T19:39:26.463Z,17.30
2018-06-24T19:41:55.813Z,17.40
2018-06-24T19:44:25.301Z,17.20
2018-06-24T19:46:54.668Z,17.20
2018-06-24T19:49:24.042Z,17.20
2018-06-24T19:51:53.429Z,17.20
2018-06-24T19:54:22.705Z,17.20
2018-06-24T19:56:52.084Z,17.20
2018-06-24T19:59:21.826Z,17.30
2018-06-24T20:01:51.149Z,16.90
2018-06-24T20:04:20.601Z,17.20
2018-06-24T20:06:49.970Z,17.20
2018-06-24T20:09:19.474Z,17.20
2018-06-24T20:11:48.779Z,17.20
2018-06-24T20:14:18.049Z,17.20
2018-06-24T20:16:47.410Z,17.30
2018-06-24T20:19:16.879Z,17.20
2018-06-24T20:21:46.290Z,17.30
2018-06-24T20:24:15.540Z,17.30
2018-06-24T20:26:45.000Z,17.20
2018-06-24T20:29:14.287Z,17.10
2018-06-24T20:31:43.665Z,17.00
2018-06-24T20:34:13.471Z,16.90
2018-06-24T20:36:42.803Z,16.90
2018-06-24T20:39:12.205Z,16.60
2018-06-24T20:41:41.850Z,16.60
2018-06-24T20:44:11.079Z,16.70
2018-06-24T20:49:09.270Z,16.60
2018-06-24T20:51:38.674Z,16.70
2018-06-24T20:54:07.979Z,16.80
2018-06-24T20:56:37.343Z,16.70
2018-06-24T20:59:06.622Z,16.70
2018-06-24T21:01:36.472Z,16.60
2018-06-24T21:04:06.049Z,16.90
2018-06-24T21:06:35.373Z,16.60
2018-06-24T21:09:07.529Z,16.40
2018-06-24T21:11:36.830Z,16.30
2018-06-24T21:14:06.173Z,16.60
2018-06-24T21:16:35.758Z,16.50
2018-06-24T21:19:05.134Z,16.50
2018-06-24T21:21:34.737Z,16.50
2018-06-24T21:24:04.150Z,16.50
2018-06-24T21:26:33.476Z,16.40
2018-06-24T21:29:02.805Z,16.60
2018-06-24T21:31:32.060Z,16.70
2018-06-24T21:34:01.341Z,16.70
2018-06-24T21:36:30.668Z,16.60
2018-06-24T21:39:00.523Z,16.80
2018-06-24T21:41:29.802Z,16.50
2018-06-24T21:43:59.096Z,16.70
2018-06-24T21:48:57.290Z,16.50
2018-06-24T21:51:26.534Z,16.50
2018-06-24T21:53:55.866Z,16.50
2018-06-24T21:56:25.251Z,16.50
2018-06-24T21:58:54.889Z,16.50
2018-06-24T22:01:24.170Z,16.50
2018-06-24T22:06:23.101Z,16.30
2018-06-24T22:08:52.383Z,16.60
2018-06-24T22:11:21.980Z,16.60
2018-06-24T22:13:51.305Z,16.40
2018-06-24T22:16:20.639Z,16.50
2018-06-24T22:18:49.917Z,16.50
2018-06-24T22:21:19.240Z,16.50
2018-06-24T22:23:48.550Z,16.60
2018-06-24T22:26:17.875Z,16.50
2018-06-24T22:28:47.172Z,16.50
2018-06-24T22:31:17.016Z,16.30
2018-06-24T22:33:46.376Z,16.20
2018-06-24T22:36:15.646Z,16.40
2018-06-24T22:38:44.935Z,16.20
2018-06-24T22:41:14.201Z,16.50
2018-06-24T22:43:43.471Z,16.40
2018-06-24T22:46:12.712Z,16.50
2018-06-24T22:48:41.976Z,16.50
2018-06-24T22:51:11.282Z,16.70
2018-06-24T22:53:40.536Z,16.40
2018-06-24T22:56:09.816Z,16.40
2018-06-24T22:58:39.093Z,16.50
2018-06-24T23:01:09.259Z,16.50
2018-06-24T23:03:38.559Z,16.50
2018-06-24T23:06:08.103Z,16.50
2018-06-24T23:08:38.169Z,16.50
2018-06-24T23:11:07.459Z,16.40
2018-06-24T23:13:36.871Z,16.30
2018-06-24T23:16:06.938Z,16.30
2018-06-24T23:18:36.278Z,16.20
2018-06-24T23:21:05.698Z,16.40
2018-06-24T23:23:34.973Z,16.40
2018-06-24T23:26:04.222Z,16.40
2018-06-24T23:28:33.641Z,16.50
2018-06-24T23:31:04.258Z,16.50
2018-06-24T23:33:33.658Z,16.50
2018-06-24T23:36:02.967Z,16.50
2018-06-24T23:38:32.353Z,16.10
2018-06-24T23:41:01.633Z,16.20
2018-06-24T23:43:30.910Z,16.30
2018-06-24T23:46:00.182Z,16.40
2018-06-24T23:48:29.562Z,16.40
2018-06-24T23:50:58.817Z,16.30
2018-06-24T23:53:28.051Z,16.50
2018-06-24T23:55:57.639Z,16.50
2018-06-24T23:58:26.913Z,16.30
